Dernières infos :  

13/08/2017  Mise à jour des tableaux d'analyses décadaires
02/08/2017 Mise en ligne de la synthèse climatologique de Juillet 2017 : 
CLIQUEZ ICI
01/08/2017  Mise à jour des tableaux d'analyses décadaires, mensuelles et annuelles : rubrique climatologie

31/07/2017 Vidéo du violent orage de dimanche soir 30/07 : CLIQUEZ ICI   

Si l'entête du tableau ne s'affiche pas correctement, => actualisez la page (F5 avec Internet Explorer, Chrome...).
Utilisez l'ascenseur sur la droite des lignes du tableau pour faire défiler verticalement les jours du mois.

TABLEAU DES DONNEES COMPLETES NOAA de DECEMBRE 2013

DATE TEMPERATURE
sous abri
TEMPARATURE 
au sol
VENT  et  Indice de Refroidissement Eolien  PRECIPITATIONS (en mm/m2)
et Intensité
PRESSION ATMOSPHERIQUE (en hPa) HUMIDITE de l'AIR RADIATIONS SOLAIRES (en W/m2)
Mini Moy. Maxi Mini Moy. Maxi Moyen Rafale I.R.E.
Minii
Précip. jour Cumul mois Intensité Maxi Mini Moy. Maxi Mini Moy. Maxi Pic maxi du jour Total jour
01/12/2013 -1.2° 6.8° -5° 1.3° 15.6° 5.5km/h dir N 29km/h dir NNE -3.7° 0.2 0.2   1023.1 1024.1 1025.8 66% 83.8% 94% 403 19 560
02/12/2013 -3.8° -0.4° 5.2° -7.8° -1.7° 14.4° 0.5km/h dir SE 12.9km/h dir SO -5.2° 0 0.2   1023 1025.8 1029 75% 89.5% 95% 341 19 317
03/12/2013 -4.9° -0.3° 8.2° -8.3° -1.6° 17.8° 0km/h dir 0km/h dir --- -4.9° 0.4 0.6   1028.5 1029.4 1030.8 64% 88.3% 95% 366 20 161
04/12/2013 -4.2° 7.3° -7.2° 16.1° 1.6km/h dir N 14.5km/h dir NNE -4.2° 0 0.6   1028.7 1029.9 1031.5 72% 90.9% 96% 350 19 127
05/12/2013 0.7° 2.5° 5.1° 2.7° 7.2° 1km/h dir N 16.1km/h dir NNE -2.3° 0 0.6   1028.7 1030 1031.4 84% 91.9% 96% 209 9 696
06/12/2013 -0.9° 3.2° 6.2° -5.6° 1.8° 9.4° 0.2km/h dir SSE 17.7km/h dir N -1.2° 2.8 3.4 4.4mm/h 1027.9 1029.1 1030.8 86% 93% 96% 190 5 944
07/12/2013 -2.5° 0.8° 7.1° -7.2° -0.7° 15.6° 1.8km/h dir NNO 19.3km/h dir NNE -3.2° 0.4 3.8   1027.9 1029.7 1031.2 70% 88.8% 96% 353 19 176
08/12/2013 -4.8° -0.7° 6.3° -7.8° -2.3° 16.7° 0km/h dir SSO 6.4km/h dir OSO -4.8° 0 3.8   1029.6 1030.7 1032.2 74% 90.1% 96% 348 18 172
09/12/2013 -5.3° -2.2° 2.5° -8.9° -2.7° 10.6° 0.8km/h dir NO 12.9km/h dir NO -5.3° 0.2 4   1032 1032.9 1034.4 88% 93.8% 96% 323 12 773
10/12/2013 -2.9° -1.9° -1° -3.3° -1.9° 1.1° 0km/h dir E 4.8km/h dir S -2.9° 0.2 4.2   1034.1 1035.1 1036.2 95% 95.5% 96% 107 6 075
11/12/2013 -4° -2.3° 0.1° -4.4° -1.9° 3.9° 0.2km/h dir N 8km/h dir SSE -4.3° 0 4.2   1032.2 1033.9 1036.1 95% 95.5% 96% 237 11 053
12/12/2013 -4.7° -2.7° -0.5° -6.1° -2.7° 1.7° 0.2km/h dir N 6.4km/h dir N -5.3° 0.2 4.4   1029.3 1031 1032.5 94% 95.2% 96% 151 8 172
13/12/2013 -3.8° -2.3° -0.6° -4.4° -2.1° 2.2° 0km/h dir 0km/h dir --- -3.8° 0 4.4   1025.6 1027.6 1029.6 95% 95.5% 96% 158 8 378
14/12/2013 -2.6° 1.3° 6.7° -3.9° 1.3° 14.4° 0.2km/h dir NNE 8km/h dir N -2.6° 1.2 5.6 1mm/h 1028.8 1032.7 1035.5 96% 96.1% 97% 332 11 098
15/12/2013 -1.7° 1.3° 7.2° -5° 1.3° 17.8° 0.3km/h dir S 9.7km/h dir S -1.6° 0.2 5.8   1032.3 1033.6 1035.4 84% 94.3% 97% 327 17 624
16/12/2013 -2.8° 5.2° 13° -6.1° 18.3° 4.8km/h dir S 33.8km/h dir SSO -2.8° 0.2 6   1028.9 1030.8 1033.5 58% 79.6% 96% 357 14 776
17/12/2013 7.3° 10.1° 14.3° 9.6° 20° 7.4km/h dir S 32.2km/h dir S 6.7° 0 6   1025.2 1026.8 1028.9 49% 69.9% 83% 334 18 076
18/12/2013 8.8° 10.2° 12.1° 7.2° 9.3° 16.7° 6.1km/h dir S 35.4km/h dir S 0.2 6.2   1015.2 1021.9 1026.1 68% 76.4% 84% 348 7 324
19/12/2013 6.9° 9.2° 11.8° 6.1° 8.2° 11.1° 6km/h dir S 40.2km/h dir S 6.7° 26.8 33 5.6mm/h 1011.6 1012.8 1015.2 68% 88.1% 96% 40 1 688
20/12/2013 4.4° 6.6° 7.8° 2.2° 6.2° 9.4° 0.6km/h dir NO 16.1km/h dir NO 4.4° 7 40 8.6mm/h 1014.2 1026.2 1033.8 89% 94% 97% 178 6 611
21/12/2013 4.6° 7.3° 11.7° 3.3° 7.1° 15° 1.6km/h dir SSE 17.7km/h dir S 4.6° 0 40   1027.5 1031.2 1034.1 75% 87.8% 95% 392 13 851
22/12/2013 9.8° 11.8° 13.4° 8.3° 11.1° 15.6° 11.3km/h dir S 48.3km/h dir SSE 8.9° 0.2 40.2   1024.3 1025.7 1027.5 72% 79.4% 86% 367 7 525
23/12/2013 9.3° 11.1° 13.4° 7.8° 11° 18.9° 9km/h dir S 41.8km/h dir S 6.8° 0 40.2   1012.4 1020.2 1025.8 70% 80.4% 88% 325 17 740
24/12/2013 9.6° 13.3° 15.2° 8.3° 12.6° 14.4° 20.9km/h dir S 64.4km/h dir SSE 7.3° 0 40.2   995 1003.1 1012.2 49% 62% 80% 271 6 480
25/12/2013 6.5° 9.9° 14.7° 5.6° 14.4° 8.7km/h dir SSO 61.2km/h dir S 4.3° 31.4 71.6 32.8mm/h 990.3 992.5 994.8 59% 85% 95% 288 3 401
26/12/2013 2.4° 5.7° 6.9° -1.7° 4.7° 7.2° 2.4km/h dir NO 27.4km/h dir NO 2.6° 4 75.6 7.8mm/h 991.1 1000.3 1011 83% 91.8% 95% 134 5 820
27/12/2013 -0.6° 4.9° 9.9° -4.4° 3.5° 14.4° 2.1km/h dir S 27.4km/h dir SSE -0.5° 0.2 75.8   1005.9 1009.1 1011.2 58% 80.6% 96% 450 10 419
28/12/2013 7.9° 10.2° 6.6° 9.4° 4.7km/h dir S 43.5km/h dir S 4.1° 23.2 99 15.6mm/h 1003.4 1007.2 1015.4 57% 80.2% 95% 26 983
29/12/2013 2.7° 5.1° 9.4° 4.3° 16.7° 0.5km/h dir SSE 17.7km/h dir NO 2.7° 0.4 99.4   1015.5 1021.7 1028.2 75% 91.9% 96% 448 11 047
30/12/2013 -1.4° 1.7° 5.8° -5.6° 14.4° 0.5km/h dir SE 11.3km/h dir ESE -1.3° 0 99.4   1023.8 1026.3 1028.3 85% 94.3% 96% 350 15 928
31/12/2013 -1.3° 4.7° 9.6° -5° 3.8° 13.9° 5.1km/h dir S 41.8km/h dir S -1.5° 0.8 100.2 1mm/h 1014.5 1018.2 1023.9 55% 78.8% 96% 439 16 969

RETOUR ACCUEIL


Date de création : 05/01/2014 : 20:49
Dernière modification : 09/02/2015 : 18:23
Catégorie : ARCHIVES 2002 à 2016 - ANNEES 2010 à 2019 - ANNEE 2013 - DECEMBRE 2013
Page lue 1773 fois


Réactions à cet article

Personne n'a encore laissé de commentaire.
Soyez donc le premier !